• Join FlightAware (Why Join?)
  • Login
  • US Flag 
03:29AM EDT


 

Airport Tracker/Info


-or-


 

Live Flight TrackerFlight Track Log ✈ N414MA ✈ 08-May-2013 ✈ KMFD - KDAY

Flight Track Log - Related Links

Times and Time Zones

All times are in EDT time to prevent confusion due to time zone crossing. See the N414MA flight status page for this flight to view local times or setup timezone preferences in your user account.

Time Position Orientation Groundspeed Altitude Reporting Facility
EDT Latitude Longitude Course Direction KTS MPH feet Rate Location/Type
03:18PM 40.8317 -82.5672 253° West 118 136 3,200  Level Cleveland Center
03:19PM 40.8161 -82.6106 245° Southwest 124 143 4,100 900 Climbing Cleveland Center
03:20PM 40.8050 -82.6486 249° West 130 150 5,100 1,020 Climbing Cleveland Center
03:21PM 40.7875 -82.6947 243° Southwest 135 155 6,200 1,020 Climbing Cleveland Center
03:22PM 40.7700 -82.7408 243° Southwest 135 155 7,200 1,020 Climbing Cleveland Center
03:23PM 40.7547 -82.7869 246° West 135 155 8,300 660 Climbing Cleveland Center
03:24PM 40.7347 -82.8383 243° Southwest 135 155 8,600 -60 Climbing Cleveland Center
03:25PM 40.7192 -82.8897 248° West 146 168 8,200 -240 Descending Cleveland Center
03:26PM 40.7039 -82.9303 244° Southwest 146 168 8,200  Level Cleveland Center
03:27PM 40.6883 -82.9708 243° Southwest 130 150 8,200  Level Cleveland Center
03:28PM 40.6750 -83.0114 247° West 125 144 8,200  Level Cleveland Center
03:29PM 40.6594 -83.0492 242° Southwest 119 137 8,200  Level Cleveland Center
03:30PM 40.6461 -83.0869 245° Southwest 114 131 8,200 -180 Level Cleveland Center
03:31PM 40.6331 -83.1194 242° Southwest 114 131 7,900 -120 Descending Cleveland Center
03:32PM 40.6161 -83.1475 231° Southwest 126 145 8,000  Climbing Indianapolis Center
03:33PM 40.5878 -83.1869 227° Southwest 140 161 7,900 -60 Descending Indianapolis Center
03:34PM 40.5556 -83.2361 229° Southwest 170 196 7,900 -660 Level Indianapolis Center
03:35PM 40.5131 -83.3042 231° Southwest 204 235 6,600 -1,080 Descending Indianapolis Center
03:35PM 40.4989 -83.3319 236° Southwest 200 230 6,400 -600 Descending Indianapolis Center
03:36PM 40.4775 -83.3631 228° Southwest 204 235 6,000 -240 Descending Indianapolis Center
03:37PM 40.4422 -83.4103 226° Southwest 182 209 6,000 60 Level Indianapolis Center
03:37PM 40.4297 -83.4222 216° Southwest 169 194 6,100  Climbing Indianapolis Center
03:38PM 40.4033 -83.4467 215° Southwest 172 198 6,000  Descending Indianapolis Center
03:39PM 40.3664 -83.4864 219° Southwest 171 197 6,100  Climbing Indianapolis Center
03:40PM 40.3303 -83.5494 233° Southwest 163 188 6,100  Level Indianapolis Center
03:41PM 40.3119 -83.5839 235° Southwest 165 190 6,100 -60 Level Indianapolis Center
03:42PM 40.2775 -83.6389 231° Southwest 166 191 6,000  Descending Indianapolis Center
03:42PM 40.2706 -83.6514 234° Southwest 161 185 6,100 60 Climbing Indianapolis Center
03:43PM 40.2475 -83.6856 229° Southwest 166 191 6,100 -60 Level Indianapolis Center
03:44PM 40.2181 -83.7317 230° Southwest 166 191 6,000 -60 Descending Indianapolis Center
03:45PM 40.1881 -83.7767 229° Southwest 164 189 6,000  Level Indianapolis Center
03:46PM 40.1619 -83.8453 244° Southwest 158 182 6,100  Climbing Indianapolis Center
03:47PM 40.1494 -83.8983 253° West 160 184 6,100 -60 Level Indianapolis Center
03:48PM 40.1386 -83.9503 255° West 161 185 6,000  Descending Indianapolis Center
03:49PM 40.1253 -84.0072 253° West 162 186 6,100  Climbing Indianapolis Center
03:50PM 40.1089 -84.0619 249° West 162 186 6,000  Descending Indianapolis Center
03:51PM 40.0694 -84.1225 230° Southwest 170 196 6,100  Climbing Indianapolis Center
03:52PM 40.0483 -84.1603 234° Southwest 170 196 6,000 -300 Descending Indianapolis Center
03:54PM 40.0092 -84.2236 231° Southwest 172 198 5,500 -600 Descending Indianapolis Center
03:54PM 39.9756 -84.2511 212° Southwest 184 212 4,800 -1,080 Descending Indianapolis Center
03:55PM 39.9203 -84.2836 204° Southwest 191 220 3,500 -1,320 Descending Indianapolis Center
03:56PM 39.8875 -84.2783 173° South 133 153 2,100 -1,380 Descending Indianapolis Center
03:59PM 39.9000 -84.2167 21° North  Level FlightAware Approximate